Rio Rancho, NM (87124)

4:57 AM MDT on May 22, 2015 (GMT -0600)
Western Hills | | Change Station
CLOSE
Current Station
Personal Weather Station
Location: Rio Rancho, NM
Elevation: 5486 ft
Nearby Weather Stations

Elev 5486 ft 35.26 °N, 106.69 °W | Updated 6 seconds ago

Mostly Cloudy
Mostly Cloudy
47.8 °F
Feels Like 46 °F
N
3.8
Wind Variable Wind from ENE
Gusts 3.8 mph

Today
High -- | Low -- °F
--% Chance of Precip.
Yesterday
High -- | Low -- °F
Precip. -- in
5:58 AM 8:09 PM
Waxing Crescent, 20% visible
Pressure 30.11 in
Visibility 10.0 miles
Clouds Overcast 2900 ft
Windchill 46 °F
Dew Point 45 °F
Humidity 90%
Rainfall 0.00 in
Snow Depth Not available.
UV 0 out of 12
Pollen 4.50 out of 12
Air Quality Not available.
Flu Activity Local Activity
METAR KAEG 221035Z AUTO 02007KT 10SM OVC029 08/06 A3011 RMK AO2 T00760060

More Conditions Fewer Conditions

Pressure 30.11 in
Visibility 10.0 miles
Clouds Overcast 2900 ft
Windchill 46 °F
Dew Point 45 °F
Humidity 90%
Rainfall 0.00 in
Snow Depth Not available.
UV 0 out of 12
Pollen 4.50 out of 12
Air Quality Not available.
Flu Activity Local Activity
METAR KAEG 221035Z AUTO 02007KT 10SM OVC029 08/06 A3011 RMK AO2 T00760060

More Conditions Fewer Conditions

10-Day Weather Forecast

Almanac

Astronomy

May. 22, 2015 Rise Set
Actual Time
Civil Twilight
Nautical Twilight
Astronomical Twilight
Moon
Length of Visible Light
Length of Day
Tomorrow will be .
, % of the Moon is Illuminated

Today's Extremes

State Highs State Lows

Community

WunderPhotos

Upload Photos

1,823,200 photos uploaded!

WunderBlogs® & News

Nearby

Air Quality

  Air Quality AQ Index Pollutant
Not available.

Snow Depth

Station Depth Elevation

Earthquake Activity

City Distance Mag. Time & Date
Minimum magnitude displayed is 2.5.

Coastal Water Temperatures

Place Temperature

Stations

Nearby Weather Stations

Station Location Temp. Windchill Dew Point Humidity Wind Precip. Elev Updated Type